Time;durP1;ratioP1;P1;durP2;ratioP2;P2;SDS_P1;SDS_P2;PMS_P1;PMS_P2;Temp;Humidity;BMP_temperature;BMP_pressure;BME280_temperature;BME280_humidity;BME280_pressure;Samples;Min_cycle;Max_cycle;Signal;HPM_P1;HPM_P2
2021/12/09 00:01:01;;;;;;;104.75;44.20;;;3.20;99.90;;;;;;5049662;28;20030;-82
2021/12/09 00:03:28;;;;;;;;;;;3.20;99.90;;;;;;5049185;28;20021;-80
2021/12/09 00:05:56;;;;;;;105.40;41.92;;;3.20;99.90;;;;;;5048858;28;19909;-80
2021/12/09 00:08:25;;;;;;;102.00;43.95;;;3.20;99.90;;;;;;5050091;28;20021;-80
2021/12/09 00:10:50;;;;;;;107.93;43.38;;;3.20;99.90;;;;;;5046479;28;20460;-81
2021/12/09 00:13:16;;;;;;;104.65;44.80;;;3.20;99.90;;;;;;5048975;28;20044;-80
2021/12/09 00:15:42;;;;;;;107.15;43.05;;;3.20;99.90;;;;;;5049432;28;20417;-81
2021/12/09 00:18:07;;;;;;;105.90;44.58;;;3.20;99.90;;;;;;5049386;28;20492;-80
2021/12/09 00:20:33;;;;;;;101.47;43.13;;;3.20;99.90;;;;;;5047992;28;20093;-81
2021/12/09 00:22:59;;;;;;;107.57;43.38;;;3.20;99.90;;;;;;5050065;28;20036;-81
2021/12/09 00:25:24;;;;;;;104.75;42.75;;;3.20;99.90;;;;;;5051776;28;20006;-80
2021/12/09 00:27:51;;;;;;;105.13;42.28;;;3.20;99.90;;;;;;5058776;28;20056;-80
2021/12/09 00:30:20;;;;;;;104.18;42.28;;;3.30;99.90;;;;;;5058153;28;20029;-80
2021/12/09 00:32:47;;;;;;;103.38;42.78;;;3.30;99.90;;;;;;5058970;28;20032;-78
2021/12/09 00:35:15;;;;;;;111.07;44.33;;;3.20;99.90;;;;;;5058518;28;20044;-79
2021/12/09 00:37:52;;;;;;;103.75;42.30;;;3.20;99.90;;;;;;5058738;28;20016;-79
2021/12/09 00:40:18;;;;;;;106.72;45.25;;;3.20;99.90;;;;;;5055606;28;20009;-82
2021/12/09 00:42:44;;;;;;;109.60;45.53;;;3.20;99.90;;;;;;5049409;28;20101;-82
2021/12/09 00:45:09;;;;;;;106.13;43.78;;;3.30;99.90;;;;;;5049439;28;20022;-82
2021/12/09 00:47:35;;;;;;;106.47;44.28;;;3.30;99.90;;;;;;5052840;28;20036;-80
2021/12/09 00:50:00;;;;;;;104.22;43.05;;;3.20;99.90;;;;;;5055369;28;20017;-81
2021/12/09 00:52:27;;;;;;;104.65;43.25;;;3.20;99.90;;;;;;5055317;28;20041;-80
2021/12/09 00:54:54;;;;;;;105.95;44.92;;;3.20;99.90;;;;;;5056854;28;20017;-81
2021/12/09 00:57:20;;;;;;;116.38;42.28;;;3.10;99.90;;;;;;5047276;28;20076;-81
2021/12/09 00:59:46;;;;;;;102.20;44.17;;;3.10;99.90;;;;;;5047072;28;20025;-81
2021/12/09 01:02:12;;;;;;;103.90;43.38;;;3.10;99.90;;;;;;5048650;28;20085;-80
2021/12/09 01:04:39;;;;;;;105.55;42.95;;;3.10;99.90;;;;;;5050442;28;20030;-81
2021/12/09 01:07:05;;;;;;;104.13;44.92;;;3.10;99.90;;;;;;5049869;28;20032;-82
2021/12/09 01:09:31;;;;;;;101.70;42.22;;;3.20;99.90;;;;;;5048125;28;20029;-79
2021/12/09 01:11:57;;;;;;;113.80;44.47;;;3.20;99.90;;;;;;5045465;28;20026;-82
2021/12/09 01:14:23;;;;;;;109.15;44.20;;;3.20;99.90;;;;;;5048271;28;20030;-81
2021/12/09 01:16:48;;;;;;;107.93;44.53;;;3.20;99.90;;;;;;5046326;28;20507;-82
2021/12/09 01:19:14;;;;;;;104.50;45.03;;;3.20;99.90;;;;;;5046873;28;20021;-82
2021/12/09 01:21:40;;;;;;;107.55;41.85;;;3.20;99.90;;;;;;5048344;28;20033;-81
2021/12/09 01:24:06;;;;;;;101.15;42.97;;;3.10;99.90;;;;;;5047548;28;20057;-81
2021/12/09 01:26:31;;;;;;;110.38;45.10;;;3.10;99.90;;;;;;5048277;28;20104;-81
2021/12/09 01:29:02;;;;;;;106.00;44.20;;;3.10;99.90;;;;;;5048870;28;20025;-82
2021/12/09 01:31:34;;;;;;;102.53;43.75;;;3.10;99.90;;;;;;5049237;28;20045;-82
2021/12/09 01:34:02;;;;;;;115.45;46.63;;;3.00;99.90;;;;;;5049202;28;20025;-80
2021/12/09 01:36:29;;;;;;;108.45;44.10;;;3.00;99.90;;;;;;5047781;28;20052;-82
2021/12/09 01:38:55;;;;;;;104.95;44.55;;;3.00;99.90;;;;;;5051306;28;20040;-81
2021/12/09 01:41:21;;;;;;;107.47;45.45;;;3.00;99.90;;;;;;5050966;28;20085;-81
2021/12/09 01:43:47;;;;;;;104.55;44.70;;;2.90;99.90;;;;;;5051736;28;20021;-81
2021/12/09 01:46:16;;;;;;;106.65;45.53;;;3.00;99.90;;;;;;5053942;28;20020;-79
2021/12/09 01:48:43;;;;;;;117.55;47.45;;;3.00;99.90;;;;;;5051019;28;20501;-80
2021/12/09 01:51:10;;;;;;;111.28;46.60;;;3.00;99.90;;;;;;5047111;28;20089;-80
2021/12/09 01:53:36;;;;;;;113.00;46.83;;;3.00;99.90;;;;;;5046352;28;20045;-81
2021/12/09 01:56:06;;;;;;;118.43;47.03;;;2.90;99.90;;;;;;5046957;28;20021;-81
2021/12/09 01:58:32;;;;;;;117.13;47.35;;;3.00;99.90;;;;;;5049096;28;20021;-82
2021/12/09 02:00:57;;;;;;;119.68;46.83;;;3.00;99.90;;;;;;5049032;28;20018;-80
2021/12/09 02:03:24;;;;;;;122.55;48.10;;;3.00;99.90;;;;;;5044874;28;20029;-81
2021/12/09 02:05:50;;;;;;;122.93;48.95;;;3.00;99.90;;;;;;5046335;28;20014;-81
2021/12/09 02:08:16;;;;;;;114.95;48.70;;;2.90;99.90;;;;;;5056958;28;20048;-80
2021/12/09 02:10:46;;;;;;;109.95;46.33;;;2.90;99.90;;;;;;5052925;28;20080;-81
2021/12/09 02:13:13;;;;;;;122.40;48.90;;;2.90;99.90;;;;;;5048518;28;20089;-82
2021/12/09 02:15:40;;;;;;;122.97;48.70;;;2.90;99.90;;;;;;5049278;28;20085;-80
2021/12/09 02:18:10;;;;;;;123.43;47.88;;;2.90;99.90;;;;;;5051047;28;20026;-81
2021/12/09 02:20:38;;;;;;;127.03;50.10;;;2.90;99.90;;;;;;5051124;28;20056;-81
2021/12/09 02:23:08;;;;;;;128.43;48.85;;;3.00;99.90;;;;;;5051625;28;20032;-81
2021/12/09 02:25:36;;;;;;;126.72;49.53;;;3.00;99.90;;;;;;5052231;28;20021;-80
2021/12/09 02:28:02;;;;;;;122.07;48.97;;;3.10;99.90;;;;;;5051636;28;20017;-83
2021/12/09 02:30:28;;;;;;;133.15;49.70;;;3.00;99.90;;;;;;5049428;28;20044;-82
2021/12/09 02:32:54;;;;;;;123.80;48.67;;;3.00;99.90;;;;;;5049657;28;20026;-80
2021/12/09 02:35:19;;;;;;;119.65;48.50;;;2.90;99.90;;;;;;5054605;28;20040;-79
2021/12/09 02:37:45;;;;;;;133.90;52.53;;;2.90;99.90;;;;;;5053441;28;20052;-81
2021/12/09 02:40:13;;;;;;;133.85;51.45;;;2.90;99.90;;;;;;5050436;28;20055;-81
2021/12/09 02:42:39;;;;;;;125.00;51.47;;;3.00;99.90;;;;;;5048749;28;20276;-82
2021/12/09 02:45:07;;;;;;;139.60;51.55;;;3.00;99.90;;;;;;5051061;28;20033;-81
2021/12/09 02:47:33;;;;;;;126.60;48.63;;;3.00;99.90;;;;;;5052699;28;20022;-80
2021/12/09 02:49:59;;;;;;;133.43;52.70;;;3.00;99.90;;;;;;5056811;28;20026;-81
2021/12/09 02:52:25;;;;;;;130.32;50.92;;;3.00;99.90;;;;;;5051213;28;20024;-81
2021/12/09 02:54:51;;;;;;;125.60;49.65;;;3.00;99.90;;;;;;5051379;28;20029;-82
2021/12/09 02:57:17;;;;;;;125.03;50.92;;;3.00;99.90;;;;;;5052034;28;20052;-80
2021/12/09 02:59:44;;;;;;;126.28;51.45;;;3.00;99.90;;;;;;5052881;28;20025;-79
2021/12/09 03:02:11;;;;;;;130.27;52.20;;;3.00;99.90;;;;;;5053755;28;20029;-80
2021/12/09 03:04:37;;;;;;;131.70;52.53;;;3.00;99.90;;;;;;5054245;28;20029;-79
2021/12/09 03:07:08;;;;;;;134.52;52.75;;;3.00;99.90;;;;;;5052727;28;20018;-79
2021/12/09 03:09:34;;;;;;;134.73;52.58;;;3.00;99.90;;;;;;5055840;28;20033;-78
2021/12/09 03:12:04;;;;;;;137.65;51.88;;;3.00;99.90;;;;;;5052978;28;20067;-79
2021/12/09 03:14:30;;;;;;;135.93;51.70;;;2.90;99.90;;;;;;5047394;28;20030;-81
2021/12/09 03:16:56;;;;;;;136.65;52.63;;;2.90;99.90;;;;;;5045098;28;20497;-81
2021/12/09 03:19:22;;;;;;;144.20;54.58;;;3.00;99.90;;;;;;5047642;28;20030;-82
2021/12/09 03:21:49;;;;;;;142.35;53.80;;;2.90;99.90;;;;;;5049081;28;20018;-85
2021/12/09 03:24:18;;;;;;;134.10;51.78;;;3.00;99.90;;;;;;5046995;28;20025;-84
2021/12/09 03:26:54;;;;;;;134.57;51.70;;;3.10;99.90;;;;;;5055097;28;20025;-85
2021/12/09 03:29:21;;;;;;;135.93;51.97;;;3.10;99.90;;;;;;5055683;28;20010;-82
2021/12/09 03:31:49;;;;;;;136.07;53.72;;;3.10;99.90;;;;;;5043654;28;20064;-82
2021/12/09 03:34:16;;;;;;;134.60;51.38;;;3.10;99.90;;;;;;5042824;28;20064;-83
2021/12/09 03:36:42;;;;;;;143.90;55.08;;;3.30;99.90;;;;;;5045513;28;20101;-83
2021/12/09 03:39:14;;;;;;;131.18;52.58;;;3.30;99.90;;;;;;5048846;28;20391;-83
2021/12/09 03:41:41;;;;;;;136.95;53.22;;;3.30;99.90;;;;;;5050461;28;20025;-82
2021/12/09 03:44:07;;;;;;;145.65;52.97;;;3.30;99.90;;;;;;5059061;28;20041;-83
2021/12/09 03:46:33;;;;;;;150.82;54.88;;;3.20;99.90;;;;;;5056591;28;20044;-84
2021/12/09 03:48:58;;;;;;;141.60;53.78;;;3.20;99.90;;;;;;5057828;28;20033;-82
2021/12/09 03:51:24;;;;;;;138.93;53.53;;;3.20;99.90;;;;;;5056942;28;20060;-80
2021/12/09 03:53:51;;;;;;;125.80;50.67;;;3.20;99.90;;;;;;5058524;28;20074;-84
2021/12/09 03:56:18;;;;;;;134.77;52.85;;;3.20;99.90;;;;;;5052493;28;20041;-84
2021/12/09 03:58:43;;;;;;;142.65;54.65;;;3.30;99.90;;;;;;5053071;28;20017;-83
2021/12/09 04:01:09;;;;;;;143.70;53.85;;;3.20;99.90;;;;;;5052430;28;20040;-83
2021/12/09 04:03:34;;;;;;;151.48;54.90;;;3.20;99.90;;;;;;5057898;28;20033;-82
2021/12/09 04:06:00;;;;;;;150.55;56.60;;;3.20;99.90;;;;;;5057576;28;20026;-83
2021/12/09 04:08:26;;;;;;;143.48;55.10;;;3.10;99.90;;;;;;5050369;28;20033;-83
2021/12/09 04:10:52;;;;;;;147.88;55.35;;;3.10;99.90;;;;;;5055756;28;20037;-82
2021/12/09 04:13:18;;;;;;;148.48;55.55;;;3.10;99.90;;;;;;5055524;28;20029;-84
2021/12/09 04:15:44;;;;;;;144.20;55.10;;;3.10;99.90;;;;;;5052649;28;20103;-84
2021/12/09 04:18:10;;;;;;;149.57;54.88;;;3.00;99.90;;;;;;5051833;28;20029;-82
2021/12/09 04:20:36;;;;;;;155.45;55.92;;;3.00;99.90;;;;;;5050845;28;20120;-80
2021/12/09 04:23:03;;;;;;;158.95;55.65;;;2.90;99.90;;;;;;5044272;28;20032;-82
2021/12/09 04:25:29;;;;;;;147.63;55.55;;;2.80;99.90;;;;;;5057626;28;20056;-81
2021/12/09 04:27:56;;;;;;;145.52;53.40;;;2.80;99.90;;;;;;5057425;28;20029;-81
2021/12/09 04:30:23;;;;;;;150.02;56.47;;;2.80;99.90;;;;;;5058534;28;20030;-80
2021/12/09 04:32:53;;;;;;;155.23;57.92;;;2.90;99.90;;;;;;5058907;28;20093;-80
2021/12/09 04:35:20;;;;;;;147.18;54.53;;;2.80;99.90;;;;;;5059028;28;20025;-80
2021/12/09 04:37:47;;;;;;;155.75;55.92;;;2.80;99.90;;;;;;5052349;28;20072;-79
2021/12/09 04:40:14;;;;;;;155.50;57.40;;;2.80;99.90;;;;;;5050472;28;20089;-80
2021/12/09 04:42:40;;;;;;;150.27;55.38;;;2.70;99.90;;;;;;5048281;28;20060;-80
2021/12/09 04:45:07;;;;;;;155.20;56.72;;;2.70;99.90;;;;;;5044563;28;20433;-79
2021/12/09 04:47:32;;;;;;;159.32;57.83;;;2.70;99.90;;;;;;5044024;28;20024;-80
2021/12/09 04:49:58;;;;;;;153.80;56.30;;;2.80;99.90;;;;;;5046541;28;20021;-80
2021/12/09 04:52:24;;;;;;;156.55;57.85;;;2.80;99.90;;;;;;5047618;28;20402;-80
2021/12/09 04:54:49;;;;;;;152.13;58.40;;;2.80;99.90;;;;;;5047338;28;20040;-79
2021/12/09 04:57:15;;;;;;;160.45;55.60;;;2.80;99.90;;;;;;5045743;28;20056;-79
2021/12/09 04:59:41;;;;;;;155.98;57.25;;;2.80;99.90;;;;;;5049633;28;20029;-79
2021/12/09 05:02:12;;;;;;;155.07;58.85;;;2.80;99.90;;;;;;5050024;28;20030;-79
2021/12/09 05:04:38;;;;;;;156.52;57.25;;;2.80;99.90;;;;;;5048864;28;20037;-80
2021/12/09 05:07:03;;;;;;;166.35;57.45;;;2.70;99.90;;;;;;5046044;28;20021;-82
2021/12/09 05:09:30;;;;;;;165.43;58.15;;;2.70;99.90;;;;;;5045857;28;20076;-80
2021/12/09 05:11:55;;;;;;;152.48;57.50;;;2.70;99.90;;;;;;5046704;28;20025;-81
2021/12/09 05:14:22;;;;;;;154.85;56.95;;;2.70;99.90;;;;;;5045491;28;20105;-80
2021/12/09 05:16:52;;;;;;;154.07;57.53;;;2.70;99.90;;;;;;5045090;28;20425;-81
2021/12/09 05:19:19;;;;;;;155.85;58.65;;;2.70;99.90;;;;;;5043594;28;20058;-80
2021/12/09 05:21:45;;;;;;;157.50;55.20;;;2.70;99.90;;;;;;5044217;28;20029;-79
2021/12/09 05:24:12;;;;;;;159.20;57.72;;;2.70;99.90;;;;;;5044479;28;20033;-81
2021/12/09 05:26:45;;;;;;;159.23;58.05;;;2.80;99.90;;;;;;5046676;28;20081;-79
2021/12/09 05:29:12;;;;;;;154.32;56.35;;;2.80;99.90;;;;;;5052082;28;20025;-79
2021/12/09 05:32:23;;;;;;;146.10;56.42;;;2.70;99.90;;;;;;5048432;28;20024;-81
2021/12/09 05:34:25;;;;;;;153.30;57.30;;;2.80;99.90;;;;;;5035724;28;20037;-80
2021/12/09 05:36:51;;;;;;;156.70;57.38;;;2.80;99.90;;;;;;5053423;28;20466;-80
2021/12/09 05:39:17;;;;;;;159.68;56.47;;;2.80;99.90;;;;;;5044668;28;20048;-80
2021/12/09 05:41:44;;;;;;;153.55;56.80;;;2.80;99.90;;;;;;5044535;28;20034;-81
2021/12/09 05:44:11;;;;;;;156.80;56.97;;;2.80;99.90;;;;;;5046619;28;20060;-81
2021/12/09 05:46:39;;;;;;;149.07;55.83;;;2.70;99.90;;;;;;5045454;28;20021;-80
2021/12/09 05:49:06;;;;;;;153.13;57.50;;;2.70;99.90;;;;;;5046937;28;20372;-80
2021/12/09 05:51:32;;;;;;;149.45;56.35;;;2.70;99.90;;;;;;5046730;28;20051;-80
2021/12/09 05:53:58;;;;;;;153.88;57.67;;;2.60;99.90;;;;;;5050912;28;20039;-81
2021/12/09 05:56:24;;;;;;;155.23;57.88;;;2.70;99.90;;;;;;5053324;28;20033;-80
2021/12/09 05:58:50;;;;;;;156.88;56.80;;;2.60;99.90;;;;;;5043185;28;20113;-80
2021/12/09 06:01:16;;;;;;;153.00;57.90;;;2.70;99.90;;;;;;5044317;28;20025;-80
2021/12/09 06:03:42;;;;;;;145.10;56.40;;;2.70;99.90;;;;;;5050478;28;20029;-79
2021/12/09 06:06:08;;;;;;;148.95;55.42;;;2.70;99.90;;;;;;5039322;28;20431;-78
2021/12/09 06:08:37;;;;;;;144.48;54.65;;;2.70;99.90;;;;;;5036084;28;20017;-79
2021/12/09 06:11:04;;;;;;;151.27;55.70;;;2.70;99.90;;;;;;5039895;28;20026;-79
2021/12/09 06:13:32;;;;;;;148.65;55.20;;;2.60;99.90;;;;;;5039827;28;20029;-79
2021/12/09 06:15:59;;;;;;;144.93;56.20;;;2.60;99.90;;;;;;5038486;28;20052;-79
2021/12/09 06:18:24;;;;;;;149.10;55.72;;;2.70;99.90;;;;;;5040252;28;20026;-79
2021/12/09 06:20:50;;;;;;;139.98;56.28;;;2.70;99.90;;;;;;5039059;28;20025;-78
2021/12/09 06:23:16;;;;;;;150.65;56.92;;;2.80;99.90;;;;;;5036884;28;20026;-79
2021/12/09 06:25:42;;;;;;;151.02;56.53;;;2.70;99.90;;;;;;5043900;28;20455;-78
2021/12/09 06:28:08;;;;;;;144.23;55.30;;;2.80;99.90;;;;;;5045313;28;20497;-79
2021/12/09 06:30:33;;;;;;;144.35;55.35;;;2.80;99.90;;;;;;5040223;28;20025;-79
2021/12/09 06:32:59;;;;;;;143.50;55.47;;;2.80;99.90;;;;;;5039434;28;20064;-79
2021/12/09 06:35:27;;;;;;;151.20;58.25;;;2.80;99.90;;;;;;5039780;28;20025;-78
2021/12/09 06:37:54;;;;;;;138.55;55.10;;;2.80;99.90;;;;;;5040339;28;20529;-77
2021/12/09 06:40:21;;;;;;;152.95;57.17;;;2.70;99.90;;;;;;5037987;28;20034;-78
2021/12/09 06:42:48;;;;;;;165.65;59.92;;;2.80;99.90;;;;;;5037263;28;20147;-77
2021/12/09 06:45:15;;;;;;;151.85;55.78;;;2.80;99.90;;;;;;5042261;28;20048;-78
2021/12/09 06:47:41;;;;;;;153.82;56.83;;;2.80;99.90;;;;;;5044952;28;20085;-79
2021/12/09 06:50:09;;;;;;;152.55;56.75;;;2.80;99.90;;;;;;5056438;28;20093;-80
2021/12/09 06:52:35;;;;;;;154.38;58.35;;;2.80;99.90;;;;;;5055573;28;20010;-79
2021/12/09 06:55:01;;;;;;;150.88;58.65;;;2.80;99.90;;;;;;5054060;28;20093;-78
2021/12/09 06:57:26;;;;;;;151.57;58.95;;;2.80;99.90;;;;;;5055910;28;20033;-79
2021/12/09 06:59:52;;;;;;;149.00;56.80;;;2.80;99.90;;;;;;5055507;28;20062;-80
2021/12/09 07:02:18;;;;;;;144.00;57.75;;;2.80;99.90;;;;;;5041417;28;20124;-77
2021/12/09 07:04:43;;;;;;;149.27;57.78;;;2.80;99.90;;;;;;5038469;28;20053;-77
2021/12/09 07:07:09;;;;;;;160.00;59.00;;;2.80;99.90;;;;;;5043654;28;20091;-78
2021/12/09 07:09:36;;;;;;;147.35;57.00;;;2.80;99.90;;;;;;5052648;28;20025;-78
2021/12/09 07:12:02;;;;;;;152.82;58.47;;;2.80;99.90;;;;;;5049030;28;20013;-80
2021/12/09 07:14:28;;;;;;;146.60;55.47;;;2.80;99.90;;;;;;5042121;28;20084;-78
2021/12/09 07:16:54;;;;;;;155.13;58.10;;;2.80;99.90;;;;;;5043293;28;20030;-78
2021/12/09 07:19:20;;;;;;;153.13;58.40;;;2.80;99.90;;;;;;5053592;28;20033;-79
2021/12/09 07:21:46;;;;;;;140.10;55.40;;;2.80;99.90;;;;;;5055605;28;20049;-77
2021/12/09 07:24:12;;;;;;;155.75;59.33;;;2.80;99.90;;;;;;5043127;28;20033;-77
2021/12/09 07:26:38;;;;;;;150.20;57.60;;;2.70;99.90;;;;;;5040484;28;20052;-77
2021/12/09 07:29:04;;;;;;;151.45;59.63;;;2.80;99.90;;;;;;5042994;28;20483;-80
2021/12/09 07:31:30;;;;;;;159.25;60.42;;;2.80;99.90;;;;;;5026710;28;20029;-79
2021/12/09 07:33:57;;;;;;;144.38;56.95;;;2.80;99.90;;;;;;5051928;28;20022;-78
2021/12/09 07:36:23;;;;;;;151.70;58.45;;;2.70;99.90;;;;;;5043550;28;20032;-77
2021/12/09 07:38:49;;;;;;;155.65;61.25;;;2.80;99.90;;;;;;5042957;28;20029;-77
2021/12/09 07:41:16;;;;;;;161.80;57.85;;;2.80;99.90;;;;;;5040939;28;20033;-77
2021/12/09 07:43:42;;;;;;;149.32;58.08;;;2.90;99.90;;;;;;5040280;28;20113;-77
2021/12/09 07:46:08;;;;;;;147.75;57.78;;;3.00;99.90;;;;;;5041181;28;20367;-79
2021/12/09 07:48:34;;;;;;;151.55;56.90;;;3.00;99.90;;;;;;5045021;28;20031;-78
2021/12/09 07:51:00;;;;;;;152.75;59.13;;;3.00;99.90;;;;;;5045270;28;20061;-79
2021/12/09 07:53:25;;;;;;;163.73;58.58;;;3.00;99.90;;;;;;5044568;28;20030;-79
2021/12/09 07:55:53;;;;;;;148.95;58.17;;;3.00;99.90;;;;;;5046471;28;20029;-81
2021/12/09 07:58:19;;;;;;;153.43;58.67;;;2.90;99.90;;;;;;5047614;28;20094;-80
2021/12/09 08:00:45;;;;;;;153.65;58.05;;;3.00;99.90;;;;;;5042882;28;20489;-78
2021/12/09 08:03:12;;;;;;;154.68;56.67;;;3.10;99.90;;;;;;5049270;28;20470;-80
2021/12/09 08:05:39;;;;;;;158.48;60.03;;;3.10;99.90;;;;;;5048522;28;20088;-76
2021/12/09 08:08:05;;;;;;;155.52;59.17;;;3.10;99.90;;;;;;5039458;28;20018;-75
2021/12/09 08:10:32;;;;;;;150.35;59.67;;;3.10;99.90;;;;;;5039651;28;20036;-74
2021/12/09 08:12:59;;;;;;;155.70;59.35;;;3.10;99.90;;;;;;5043564;28;20029;-78
2021/12/09 08:15:26;;;;;;;170.23;62.88;;;3.00;99.90;;;;;;5043192;28;20091;-81
2021/12/09 08:20:25;;;;;;;161.90;62.30;;;3.00;99.90;;;;;;5043414;28;20485;-80
2021/12/09 08:22:50;;;;;;;163.05;62.33;;;3.00;99.90;;;;;;5039492;28;20044;-78
2021/12/09 08:25:16;;;;;;;164.25;62.80;;;3.00;99.90;;;;;;5039035;28;20026;-77
2021/12/09 08:27:43;;;;;;;166.23;60.60;;;3.00;99.90;;;;;;5035440;28;20029;-76
2021/12/09 08:30:15;;;;;;;161.35;60.08;;;3.00;99.90;;;;;;5036500;28;20101;-78
2021/12/09 08:32:41;;;;;;;157.77;58.28;;;3.00;99.90;;;;;;5037131;28;20056;-75
2021/12/09 08:35:07;;;;;;;167.30;61.40;;;3.00;99.90;;;;;;5041401;28;20018;-77
2021/12/09 08:37:33;;;;;;;159.90;59.63;;;3.10;99.90;;;;;;5041915;28;20048;-76
2021/12/09 08:39:59;;;;;;;173.70;59.30;;;3.10;99.90;;;;;;5044954;28;20065;-77
2021/12/09 08:42:24;;;;;;;157.63;59.58;;;3.00;99.90;;;;;;5043592;28;20037;-78
2021/12/09 08:44:51;;;;;;;160.48;60.72;;;3.10;99.90;;;;;;5041805;28;20144;-78
2021/12/09 08:47:17;;;;;;;159.70;61.00;;;3.10;99.90;;;;;;5046217;28;20028;-80
2021/12/09 08:49:45;;;;;;;165.30;60.47;;;3.10;99.90;;;;;;5044289;28;20032;-83
2021/12/09 08:52:12;;;;;;;164.60;60.50;;;3.10;99.90;;;;;;5043699;28;20018;-83
2021/12/09 08:54:37;;;;;;;167.32;61.47;;;3.00;99.90;;;;;;5047448;28;20576;-82
2021/12/09 08:57:04;;;;;;;159.07;61.88;;;3.00;99.90;;;;;;5042533;28;20092;-83
2021/12/09 08:59:30;;;;;;;158.65;59.58;;;3.10;99.90;;;;;;5043006;28;20425;-79
2021/12/09 09:01:56;;;;;;;168.15;60.85;;;3.10;99.90;;;;;;5040495;28;20036;-82
2021/12/09 09:04:22;;;;;;;154.68;58.78;;;3.10;99.90;;;;;;5044224;28;20037;-82
2021/12/09 09:06:55;;;;;;;168.23;60.92;;;3.10;99.90;;;;;;5044886;28;20060;-80
2021/12/09 09:09:24;;;;;;;165.35;60.50;;;3.10;99.90;;;;;;5042607;28;20352;-74
2021/12/09 09:11:49;;;;;;;158.80;60.03;;;3.10;99.90;;;;;;5040520;28;20021;-80
2021/12/09 09:14:15;;;;;;;172.55;61.05;;;3.10;99.90;;;;;;5052630;28;20028;-76
2021/12/09 09:16:41;;;;;;;173.13;61.38;;;3.00;99.90;;;;;;5058589;28;20017;-77
2021/12/09 09:19:07;;;;;;;166.68;62.60;;;3.00;99.90;;;;;;5058815;28;20041;-77
2021/12/09 09:21:34;;;;;;;179.55;64.43;;;3.10;99.90;;;;;;5058326;28;20010;-80
2021/12/09 09:24:00;;;;;;;166.52;61.92;;;3.10;99.90;;;;;;5057807;28;20033;-75
2021/12/09 09:26:26;;;;;;;166.65;60.80;;;3.10;99.90;;;;;;5058097;28;20010;-81
2021/12/09 09:28:52;;;;;;;167.13;62.08;;;3.10;99.90;;;;;;5058902;28;20093;-81
2021/12/09 09:31:20;;;;;;;176.73;62.92;;;3.10;99.90;;;;;;5058532;28;20033;-77
2021/12/09 09:34:06;;;;;;;169.57;61.35;;;3.10;99.90;;;;;;5057170;28;20024;-83
2021/12/09 09:37:07;;;;;;;174.50;64.78;;;3.10;99.90;;;;;;5058006;28;20013;-78
2021/12/09 09:39:33;;;;;;;169.68;60.78;;;3.10;99.90;;;;;;5043017;28;20033;-80
2021/12/09 09:42:20;;;;;;;166.88;61.45;;;3.10;99.90;;;;;;5040415;28;20101;-81
2021/12/09 09:44:56;;;;;;;175.73;64.10;;;3.10;99.90;;;;;;5042002;28;20078;-80
2021/12/09 09:47:26;;;;;;;169.63;64.63;;;3.10;99.90;;;;;;5049591;28;20418;-81
2021/12/09 09:49:54;;;;;;;167.10;62.10;;;3.10;99.90;;;;;;5044550;28;20044;-81
2021/12/09 09:52:20;;;;;;;159.43;61.30;;;3.10;99.90;;;;;;5039315;28;20025;-80
2021/12/09 09:54:46;;;;;;;163.52;61.33;;;3.10;99.90;;;;;;5041666;28;20029;-81
2021/12/09 09:57:13;;;;;;;178.82;67.70;;;3.10;99.90;;;;;;5038780;28;20061;-80
2021/12/09 09:59:40;;;;;;;176.80;63.25;;;3.10;99.90;;;;;;5040143;28;20394;-80
2021/12/09 10:02:07;;;;;;;168.23;61.63;;;3.20;99.90;;;;;;5039830;28;20014;-79
2021/12/09 10:07:00;;;;;;;165.70;60.60;;;3.20;99.90;;;;;;5039882;28;20032;-79
2021/12/09 10:09:26;;;;;;;174.00;63.42;;;3.20;99.90;;;;;;5039749;28;20031;-79
2021/12/09 10:11:55;;;;;;;171.40;61.63;;;3.20;99.90;;;;;;5038907;28;20073;-80
2021/12/09 10:14:33;;;;;;;170.93;62.78;;;3.20;99.90;;;;;;5039503;28;20112;-79
2021/12/09 10:17:05;;;;;;;160.25;60.28;;;3.20;99.90;;;;;;5046569;28;20467;-80
2021/12/09 10:19:32;;;;;;;167.55;62.15;;;3.20;99.90;;;;;;5035581;28;20028;-78
2021/12/09 10:22:12;;;;;;;173.07;64.13;;;3.20;99.90;;;;;;5038137;28;20474;-77
2021/12/09 10:24:40;;;;;;;167.25;61.83;;;3.20;99.90;;;;;;5039492;28;20026;-73
2021/12/09 10:27:18;;;;;;;178.00;65.35;;;3.20;99.90;;;;;;5036486;28;20191;-77
2021/12/09 10:29:46;;;;;;;181.55;62.88;;;3.30;99.90;;;;;;5034363;28;20029;-78
2021/12/09 10:32:23;;;;;;;159.32;59.75;;;3.30;99.90;;;;;;5037124;28;20018;-79
2021/12/09 10:34:49;;;;;;;173.13;62.80;;;3.30;99.90;;;;;;5046586;28;20036;-77
2021/12/09 10:37:20;;;;;;;174.48;65.15;;;3.30;99.90;;;;;;5044154;28;20325;-78
2021/12/09 10:40:05;;;;;;;176.18;63.80;;;3.30;99.90;;;;;;5035670;28;20021;-77
2021/12/09 10:42:34;;;;;;;174.18;65.30;;;3.30;99.90;;;;;;5064343;23;20052;-78
2021/12/09 10:45:20;;;;;;;171.23;62.05;;;3.30;99.90;;;;;;5057140;28;20049;-78
2021/12/09 10:56:03;;;;;;;178.57;65.85;;;3.30;99.90;;;;;;5061247;28;20022;-78
2021/12/09 10:58:32;;;;;;;;;;;3.30;99.90;;;;;;5061420;28;20033;-78
2021/12/09 11:01:04;;;;;;;171.43;60.47;;;3.30;99.90;;;;;;5060141;28;19904;-79
2021/12/09 11:03:35;;;;;;;161.88;62.17;;;3.30;99.90;;;;;;5060225;28;20057;-83
2021/12/09 11:06:06;;;;;;;175.63;62.85;;;3.40;99.90;;;;;;5059305;28;20077;-81
2021/12/09 11:08:45;;;;;;;170.30;62.55;;;3.40;99.90;;;;;;5052932;28;20025;-84
2021/12/09 11:11:15;;;;;;;174.63;62.75;;;3.50;99.90;;;;;;5046772;28;20040;-84
2021/12/09 11:13:53;;;;;;;167.32;62.78;;;3.60;99.90;;;;;;5045745;28;20377;-82
2021/12/09 11:16:30;;;;;;;171.65;63.17;;;3.60;99.90;;;;;;5046700;28;20018;-80
2021/12/09 11:19:06;;;;;;;169.73;62.45;;;3.70;99.90;;;;;;5048274;28;20454;-79
2021/12/09 11:21:37;;;;;;;170.93;64.30;;;3.70;99.90;;;;;;5054806;28;20026;-78
2021/12/09 11:24:06;;;;;;;169.95;61.10;;;3.70;99.90;;;;;;5057373;28;20040;-78
2021/12/09 11:27:01;;;;;;;175.77;64.07;;;3.80;99.90;;;;;;5050928;28;20034;-78
2021/12/09 11:29:45;;;;;;;165.48;60.15;;;3.80;99.90;;;;;;5046106;28;20363;-80
2021/12/09 11:35:09;;;;;;;176.85;63.75;;;3.80;99.90;;;;;;5049692;28;20056;-80
2021/12/09 11:37:44;;;;;;;176.80;63.63;;;3.80;99.90;;;;;;5049135;28;20098;-79
2021/12/09 11:40:24;;;;;;;176.27;64.07;;;3.80;99.90;;;;;;5053001;28;20028;-79
2021/12/09 11:42:58;;;;;;;160.95;61.72;;;3.80;99.90;;;;;;5051125;28;20059;-78
2021/12/09 11:45:30;;;;;;;167.27;60.97;;;3.80;99.90;;;;;;5050178;28;20030;-77
2021/12/09 11:47:56;;;;;;;167.75;61.70;;;3.80;99.90;;;;;;5048763;28;20387;-78
2021/12/09 11:50:28;;;;;;;166.57;60.72;;;3.80;99.90;;;;;;5050265;28;20021;-76
2021/12/09 11:52:56;;;;;;;185.05;71.85;;;3.80;99.90;;;;;;5047981;28;20022;-80
2021/12/09 11:55:29;;;;;;;169.75;63.88;;;3.90;99.90;;;;;;5045970;28;20022;-78
2021/12/09 11:58:02;;;;;;;173.93;63.85;;;4.00;99.90;;;;;;5047745;28;20045;-80
2021/12/09 12:15:00;;;;;;;164.25;60.95;;;4.20;99.90;;;;;;5059611;28;20061;-80
2021/12/09 12:17:37;;;;;;;167.93;63.17;;;4.30;99.90;;;;;;5059343;28;20024;-79
2021/12/09 12:23:25;;;;;;;163.15;61.67;;;4.30;99.90;;;;;;5059876;28;20029;-84
2021/12/09 12:26:15;;;;;;;162.55;60.22;;;4.30;99.90;;;;;;5056260;28;20029;-81
2021/12/09 12:28:59;;;;;;;158.63;59.53;;;4.20;99.90;;;;;;5059344;28;20021;-80
2021/12/09 12:38:17;;;;;;;176.80;60.85;;;4.00;99.90;;;;;;5058988;28;20045;-80
2021/12/09 12:40:54;;;;;;;173.55;61.63;;;4.10;99.90;;;;;;5052933;28;20045;-84
2021/12/09 12:43:29;;;;;;;168.98;61.58;;;4.10;99.90;;;;;;5056568;28;20052;-81
2021/12/09 12:49:11;;;;;;;165.95;59.88;;;4.20;99.90;;;;;;5042729;28;19999;-82
2021/12/09 12:51:50;;;;;;;172.35;61.47;;;4.20;99.90;;;;;;5049883;28;20116;-82
2021/12/09 12:57:38;;;;;;;175.18;61.78;;;4.20;99.90;;;;;;5037172;28;20111;-83
2021/12/09 13:00:14;;;;;;;173.85;62.60;;;4.20;99.90;;;;;;5051129;28;20002;-83
2021/12/09 13:05:33;;;;;;;177.88;63.85;;;4.30;99.90;;;;;;5051357;28;20018;-81
2021/12/09 13:08:29;;;;;;;182.93;69.50;;;4.30;99.90;;;;;;5052137;28;20025;-79
2021/12/09 13:13:44;;;;;;;177.13;64.45;;;4.30;99.90;;;;;;5056385;28;20026;-83
2021/12/09 13:16:36;;;;;;;183.93;65.07;;;4.20;99.90;;;;;;5050872;28;20022;-82
2021/12/09 13:19:21;;;;;;;182.50;64.07;;;4.30;99.90;;;;;;5043688;28;20089;-83
2021/12/09 13:21:53;;;;;;;171.23;62.42;;;4.30;99.90;;;;;;5046866;28;20026;-82
2021/12/09 13:24:19;;;;;;;180.82;62.15;;;4.30;99.90;;;;;;5049210;28;20064;-82
2021/12/09 13:27:20;;;;;;;183.05;64.82;;;4.50;99.90;;;;;;5044679;28;20045;-86